createdAt,value
2023-04-18T00:01:51.899Z,8.40
2023-04-18T00:04:22.174Z,8.50
2023-04-18T00:06:52.165Z,8.30
2023-04-18T00:09:22.220Z,8.40
2023-04-18T00:11:54.916Z,8.40
2023-04-18T00:14:24.882Z,8.50
2023-04-18T00:16:54.865Z,8.60
2023-04-18T00:19:24.836Z,8.70
2023-04-18T00:21:54.807Z,8.70
2023-04-18T00:24:24.964Z,8.80
2023-04-18T00:26:57.455Z,8.70
2023-04-18T00:29:40.807Z,8.70
2023-04-18T00:32:10.807Z,8.70
2023-04-18T00:34:40.705Z,8.70
2023-04-18T00:37:11.030Z,8.70
2023-04-18T00:39:40.946Z,8.70
2023-04-18T00:42:10.859Z,8.70
2023-04-18T00:44:43.482Z,8.60
2023-04-18T00:47:13.380Z,8.50
2023-04-18T00:49:43.339Z,8.50
2023-04-18T00:52:13.818Z,8.40
2023-04-18T00:54:44.735Z,8.40
2023-04-18T00:57:16.604Z,8.40
2023-04-18T00:59:53.190Z,8.40
2023-04-18T01:02:23.373Z,8.40
2023-04-18T01:04:53.413Z,8.50
2023-04-18T01:07:23.614Z,8.40
2023-04-18T01:09:53.859Z,8.40
2023-04-18T01:12:24.130Z,8.40
2023-04-18T01:14:56.597Z,8.50
2023-04-18T01:17:28.631Z,8.50
2023-04-18T01:20:01.943Z,8.30
2023-04-18T01:22:33.676Z,8.20
2023-04-18T01:25:09.804Z,8.20
2023-04-18T01:27:39.664Z,8.00
2023-04-18T01:30:11.547Z,7.90
2023-04-18T01:32:41.620Z,8.00
2023-04-18T01:35:12.330Z,8.10
2023-04-18T01:37:42.179Z,8.10
2023-04-18T01:40:15.286Z,8.20
2023-04-18T01:42:45.180Z,8.30
2023-04-18T01:45:16.097Z,8.20
2023-04-18T01:47:46.422Z,8.10
2023-04-18T01:50:16.780Z,7.90
2023-04-18T01:52:46.736Z,7.90
2023-04-18T01:55:19.261Z,7.90
2023-04-18T01:57:50.978Z,8.00
2023-04-18T02:00:23.804Z,7.90
2023-04-18T02:02:53.792Z,7.80
2023-04-18T02:05:24.592Z,7.90
2023-04-18T02:07:54.488Z,8.00
2023-04-18T02:10:27.061Z,8.10
2023-04-18T02:12:56.981Z,8.00
2023-04-18T02:15:27.211Z,8.10
2023-04-18T02:17:57.155Z,8.10
2023-04-18T02:20:27.116Z,8.20
2023-04-18T02:22:57.082Z,7.90
2023-04-18T02:25:29.967Z,7.90
2023-04-18T02:28:00.951Z,7.90
2023-04-18T02:30:34.023Z,7.90
2023-04-18T02:33:05.577Z,7.80
2023-04-18T02:35:35.645Z,7.80
2023-04-18T02:38:05.614Z,7.80
2023-04-18T02:40:38.069Z,7.80
2023-04-18T02:43:08.476Z,7.70
2023-04-18T02:45:38.565Z,7.80
2023-04-18T02:48:08.561Z,7.70
2023-04-18T02:50:38.981Z,7.60
2023-04-18T02:53:09.010Z,7.60
2023-04-18T02:56:08.352Z,7.70
2023-04-18T02:58:58.196Z,7.80
2023-04-18T03:01:46.486Z,7.70
2023-04-18T03:04:19.091Z,7.80
2023-04-18T03:06:59.395Z,7.80
2023-04-18T03:09:30.605Z,7.90
2023-04-18T03:12:08.382Z,8.00
2023-04-18T03:14:39.672Z,8.10
2023-04-18T03:17:09.678Z,8.00
2023-04-18T03:19:43.470Z,8.00
2023-04-18T03:22:17.150Z,8.00
2023-04-18T03:25:00.244Z,8.00
2023-04-18T03:28:01.742Z,7.90
2023-04-18T03:30:32.679Z,7.90
2023-04-18T03:33:05.298Z,8.00
2023-04-18T03:35:35.652Z,8.00
2023-04-18T03:38:05.576Z,8.10
2023-04-18T03:40:39.502Z,8.10
2023-04-18T03:43:19.043Z,8.10
2023-04-18T03:45:50.271Z,8.10
2023-04-18T03:48:21.153Z,8.10
2023-04-18T03:50:51.161Z,8.00
2023-04-18T03:53:21.201Z,8.00
2023-04-18T03:55:51.616Z,8.00
2023-04-18T03:58:26.763Z,8.10
2023-04-18T04:00:58.386Z,8.00
2023-04-18T04:03:28.863Z,8.00
2023-04-18T04:05:59.613Z,7.90
2023-04-18T04:08:29.611Z,7.80
2023-04-18T04:10:59.781Z,7.90
2023-04-18T04:13:32.595Z,8.00
2023-04-18T04:16:02.651Z,8.10
2023-04-18T04:18:32.800Z,8.20
2023-04-18T04:21:06.821Z,8.10
2023-04-18T04:23:48.331Z,8.20
2023-04-18T04:26:30.822Z,8.10
2023-04-18T04:29:18.051Z,8.20
2023-04-18T04:31:50.433Z,8.10
2023-04-18T04:34:41.538Z,8.10
2023-04-18T04:37:14.173Z,8.10
2023-04-18T04:39:57.090Z,8.20
2023-04-18T04:42:32.653Z,8.20
2023-04-18T04:45:13.967Z,8.00
2023-04-18T04:47:43.895Z,8.00
2023-04-18T04:50:15.774Z,8.00
2023-04-18T04:52:46.060Z,8.00
2023-04-18T04:55:17.624Z,7.80
2023-04-18T04:57:47.944Z,7.80
2023-04-18T05:00:58.948Z,7.90
2023-04-18T05:03:29.195Z,8.10
2023-04-18T05:06:00.577Z,8.10
2023-04-18T05:08:30.541Z,8.00
2023-04-18T05:11:01.515Z,8.00
2023-04-18T05:13:31.400Z,8.10
2023-04-18T05:16:04.450Z,8.00
2023-04-18T05:18:35.067Z,8.00
2023-04-18T05:21:05.084Z,8.10
2023-04-18T05:23:37.206Z,8.20
2023-04-18T05:26:07.882Z,8.20
2023-04-18T05:28:37.765Z,8.20
2023-04-18T05:31:10.302Z,8.10
2023-04-18T05:33:40.219Z,8.10
2023-04-18T05:36:10.630Z,8.10
2023-04-18T05:38:40.592Z,8.20
2023-04-18T05:41:10.712Z,8.20
2023-04-18T05:43:41.803Z,8.40
2023-04-18T05:46:15.484Z,8.30
2023-04-18T05:48:45.411Z,8.40
2023-04-18T05:51:15.332Z,8.30
2023-04-18T05:53:45.224Z,8.50
2023-04-18T05:56:15.138Z,8.50
2023-04-18T05:58:45.757Z,8.60
2023-04-18T06:01:18.781Z,8.60
2023-04-18T06:03:49.080Z,8.50
2023-04-18T06:06:19.236Z,8.40
2023-04-18T06:08:49.274Z,8.40
2023-04-18T06:11:20.316Z,8.40
2023-04-18T06:13:50.209Z,8.50
2023-04-18T06:16:22.775Z,8.40
2023-04-18T06:18:52.738Z,8.40
2023-04-18T06:21:23.304Z,8.50
2023-04-18T06:23:53.342Z,8.50
2023-04-18T06:26:23.396Z,8.50
2023-04-18T06:28:53.347Z,8.60
2023-04-18T06:31:25.933Z,8.80
2023-04-18T06:33:56.004Z,8.90
2023-04-18T06:36:27.019Z,9.00
2023-04-18T06:38:56.925Z,9.20
2023-04-18T06:41:26.848Z,9.40
2023-04-18T06:44:02.933Z,9.40
2023-04-18T06:46:36.917Z,9.40
2023-04-18T06:49:06.802Z,9.30
2023-04-18T06:51:36.726Z,9.30
2023-04-18T06:54:07.087Z,9.30
2023-04-18T06:56:37.089Z,9.20
2023-04-18T06:59:06.998Z,9.20
2023-04-18T07:01:43.950Z,9.00
2023-04-18T07:04:14.356Z,9.10
2023-04-18T07:06:45.751Z,9.10
2023-04-18T07:09:15.649Z,9.30
2023-04-18T07:11:45.565Z,9.50
2023-04-18T07:14:15.694Z,9.70
2023-04-18T07:16:48.575Z,10.00
2023-04-18T07:19:18.465Z,10.00
2023-04-18T07:21:48.359Z,10.10
2023-04-18T07:24:18.236Z,10.10
2023-04-18T07:26:48.573Z,10.30
2023-04-18T07:29:19.524Z,10.30
2023-04-18T07:31:52.789Z,10.30
2023-04-18T07:34:23.084Z,10.30
2023-04-18T07:36:53.025Z,10.30
2023-04-18T07:39:22.898Z,10.30
2023-04-18T07:41:52.935Z,10.10
2023-04-18T07:44:25.393Z,10.00
2023-04-18T07:46:57.895Z,10.00
2023-04-18T07:49:27.836Z,10.00
2023-04-18T07:51:59.046Z,10.00
2023-04-18T07:54:29.003Z,10.00
2023-04-18T07:56:58.921Z,10.20
2023-04-18T07:59:28.839Z,10.20
2023-04-18T08:02:01.541Z,10.40
2023-04-18T08:04:31.713Z,10.50
2023-04-18T08:07:01.852Z,10.60
2023-04-18T08:09:31.798Z,10.80
2023-04-18T08:12:02.633Z,10.80
2023-04-18T08:14:32.521Z,11.20
2023-04-18T08:17:04.998Z,11.50
2023-04-18T08:19:34.923Z,11.60
2023-04-18T08:22:11.905Z,12.10
2023-04-18T08:24:57.220Z,12.50
2023-04-18T08:27:32.335Z,13.40
2023-04-18T08:30:04.286Z,13.70
2023-04-18T08:32:38.447Z,12.80
2023-04-18T08:35:08.835Z,12.50
2023-04-18T08:37:38.717Z,12.80
2023-04-18T08:40:10.371Z,13.30
2023-04-18T08:42:40.825Z,13.90
2023-04-18T08:45:12.547Z,13.90
2023-04-18T08:47:45.431Z,14.20
2023-04-18T08:50:16.667Z,14.20
2023-04-18T08:52:50.058Z,14.20
2023-04-18T08:55:22.482Z,13.90
2023-04-18T08:57:54.213Z,13.40
2023-04-18T09:00:24.732Z,13.00
2023-04-18T09:02:57.877Z,12.60
2023-04-18T09:05:29.845Z,12.50
2023-04-18T09:07:59.826Z,12.60
2023-04-18T09:10:33.041Z,12.70
2023-04-18T09:13:04.513Z,12.70
2023-04-18T09:15:34.626Z,12.70
2023-04-18T09:18:12.893Z,12.50
2023-04-18T09:20:44.754Z,12.40
2023-04-18T09:23:16.721Z,12.50
2023-04-18T09:25:48.555Z,12.70
2023-04-18T09:28:27.136Z,13.00
2023-04-18T09:30:57.842Z,13.10
2023-04-18T09:33:32.709Z,12.70
2023-04-18T09:36:21.445Z,12.80
2023-04-18T09:38:56.049Z,13.00
2023-04-18T09:41:27.759Z,13.40
2023-04-18T09:44:15.099Z,13.80
2023-04-18T09:46:47.644Z,14.20
2023-04-18T09:49:20.386Z,14.60
2023-04-18T09:51:53.280Z,15.60
2023-04-18T09:54:26.219Z,16.10
2023-04-18T09:56:56.537Z,16.50
2023-04-18T09:59:40.181Z,16.70
2023-04-18T10:02:17.585Z,17.20
2023-04-18T10:04:52.058Z,16.80
2023-04-18T10:07:23.554Z,16.40
2023-04-18T10:09:53.991Z,15.90
2023-04-18T10:12:25.280Z,15.50
2023-04-18T10:14:56.962Z,15.50
2023-04-18T10:17:29.786Z,15.60
2023-04-18T10:20:18.079Z,15.80
2023-04-18T10:22:47.993Z,16.30
2023-04-18T10:25:50.439Z,16.70
2023-04-18T10:28:21.054Z,16.80
2023-04-18T10:31:05.899Z,16.70
2023-04-18T10:33:42.435Z,15.90
2023-04-18T10:36:20.671Z,15.30
2023-04-18T10:38:53.131Z,15.70
2023-04-18T10:41:28.420Z,16.30
2023-04-18T10:44:18.536Z,16.10
2023-04-18T10:47:23.522Z,16.10
2023-04-18T10:50:01.263Z,15.90
2023-04-18T10:52:34.229Z,15.50
2023-04-18T10:55:18.215Z,15.40
2023-04-18T10:57:49.401Z,15.80
2023-04-18T11:00:21.918Z,15.80
2023-04-18T11:02:56.098Z,15.80
2023-04-18T11:05:28.337Z,15.80
2023-04-18T11:08:00.821Z,15.70
2023-04-18T11:10:31.066Z,15.30
2023-04-18T11:13:04.945Z,15.00
2023-04-18T11:15:34.949Z,14.90
2023-04-18T11:18:07.051Z,15.10
2023-04-18T11:20:41.702Z,15.30
2023-04-18T11:23:25.065Z,15.50
2023-04-18T11:25:58.378Z,15.30
2023-04-18T11:28:28.760Z,15.20
2023-04-18T11:31:03.004Z,15.20
2023-04-18T11:33:32.961Z,15.50
2023-04-18T11:36:03.199Z,15.70
2023-04-18T11:38:35.935Z,15.60
2023-04-18T11:41:05.962Z,15.90
2023-04-18T11:43:36.158Z,16.30
2023-04-18T11:46:06.132Z,15.80
2023-04-18T11:48:39.306Z,16.00
2023-04-18T11:51:10.171Z,15.80
2023-04-18T11:53:42.645Z,15.90
2023-04-18T11:56:16.423Z,15.60
2023-04-18T11:58:46.348Z,15.90
2023-04-18T12:01:27.382Z,15.40
2023-04-18T12:04:05.377Z,15.30
2023-04-18T12:06:51.099Z,15.10
2023-04-18T12:09:24.970Z,15.20
2023-04-18T12:12:01.752Z,15.50
2023-04-18T12:14:32.122Z,15.90
2023-04-18T12:17:02.039Z,15.90
2023-04-18T12:19:33.109Z,15.90
2023-04-18T12:22:05.321Z,16.00
2023-04-18T12:24:38.142Z,16.00
2023-04-18T12:27:08.051Z,16.20
2023-04-18T12:29:38.258Z,16.10
2023-04-18T12:32:08.458Z,15.70
2023-04-18T12:34:38.310Z,15.60
2023-04-18T12:37:09.002Z,15.40
2023-04-18T12:39:41.501Z,15.90
2023-04-18T12:42:11.417Z,16.60
2023-04-18T12:44:41.348Z,17.00
2023-04-18T12:47:11.833Z,17.40
2023-04-18T12:49:41.783Z,17.80
2023-04-18T12:52:11.738Z,17.80
2023-04-18T12:54:44.236Z,16.80
2023-04-18T12:57:14.147Z,16.40
2023-04-18T12:59:44.025Z,16.10
2023-04-18T13:02:14.278Z,16.30
2023-04-18T13:04:44.386Z,16.10
2023-04-18T13:07:14.927Z,16.00
2023-04-18T13:09:47.463Z,16.60
2023-04-18T13:12:17.758Z,17.30
2023-04-18T13:14:47.672Z,17.40
2023-04-18T13:17:18.190Z,17.50
2023-04-18T13:19:48.044Z,17.50
2023-04-18T13:22:17.964Z,16.90
2023-04-18T13:24:50.817Z,16.80
2023-04-18T13:27:20.968Z,16.50
2023-04-18T13:29:50.907Z,16.40
2023-04-18T13:32:20.964Z,16.60
2023-04-18T13:34:51.361Z,17.10
2023-04-18T13:37:21.646Z,17.60
2023-04-18T13:39:54.213Z,17.80
2023-04-18T13:42:24.152Z,17.80
2023-04-18T13:44:54.571Z,17.80
2023-04-18T13:47:24.693Z,17.80
2023-04-18T13:49:54.589Z,17.90
2023-04-18T13:52:24.822Z,18.30
2023-04-18T13:54:57.966Z,17.80
2023-04-18T13:57:28.556Z,17.40
2023-04-18T13:59:58.444Z,16.70
2023-04-18T14:02:28.554Z,16.10
2023-04-18T14:04:58.831Z,15.70
2023-04-18T14:07:28.800Z,15.80
2023-04-18T14:10:01.304Z,15.80
2023-04-18T14:12:31.487Z,15.80
2023-04-18T14:15:01.556Z,15.50
2023-04-18T14:17:31.606Z,15.60
2023-04-18T14:20:01.776Z,15.20
2023-04-18T14:22:31.648Z,15.30
2023-04-18T14:25:04.109Z,15.40
2023-04-18T14:27:33.984Z,15.40
2023-04-18T14:30:04.341Z,15.40
2023-04-18T14:32:34.365Z,15.80
2023-04-18T14:35:07.424Z,15.70
2023-04-18T14:37:37.368Z,15.90
2023-04-18T14:40:11.479Z,16.00
2023-04-18T14:42:41.352Z,15.70
2023-04-18T14:45:12.622Z,15.80
2023-04-18T14:47:42.505Z,15.80
2023-04-18T14:50:14.057Z,15.90
2023-04-18T14:52:44.740Z,16.10
2023-04-18T14:55:17.201Z,16.00
2023-04-18T14:57:47.158Z,16.10
2023-04-18T15:00:18.194Z,16.10
2023-04-18T15:02:48.334Z,15.90
2023-04-18T15:05:18.811Z,15.60
2023-04-18T15:07:48.744Z,15.70
2023-04-18T15:10:22.697Z,15.90
2023-04-18T15:12:53.093Z,15.80
2023-04-18T15:15:23.178Z,16.00
2023-04-18T15:17:53.058Z,16.20
2023-04-18T15:20:23.972Z,16.10
2023-04-18T15:22:54.050Z,15.80
2023-04-18T15:25:26.618Z,15.70
2023-04-18T15:27:56.524Z,15.50
2023-04-18T15:30:26.609Z,15.80
2023-04-18T15:32:57.346Z,15.90
2023-04-18T15:35:27.588Z,16.10
2023-04-18T15:37:57.726Z,16.20
2023-04-18T15:40:30.481Z,16.20
2023-04-18T15:43:00.408Z,16.30
2023-04-18T15:45:30.458Z,16.40
2023-04-18T15:48:00.401Z,16.50
2023-04-18T15:50:32.781Z,16.70
2023-04-18T15:53:03.388Z,16.70
2023-04-18T15:55:35.886Z,16.30
2023-04-18T15:58:06.696Z,16.00
2023-04-18T16:00:36.636Z,16.00
2023-04-18T16:03:09.943Z,16.10
2023-04-18T16:05:39.954Z,16.20
2023-04-18T16:08:09.829Z,16.10
2023-04-18T16:10:42.330Z,16.00
2023-04-18T16:13:12.310Z,16.00
2023-04-18T16:15:42.939Z,15.50
2023-04-18T16:18:13.180Z,15.00
2023-04-18T16:20:43.255Z,14.80
2023-04-18T16:23:13.145Z,14.70
2023-04-18T16:25:46.216Z,14.60
2023-04-18T16:28:16.170Z,14.60
2023-04-18T16:30:46.724Z,14.20
2023-04-18T16:33:16.802Z,14.10
2023-04-18T16:35:46.909Z,14.00
2023-04-18T16:38:16.787Z,13.90
2023-04-18T16:40:49.219Z,13.90
2023-04-18T16:43:19.095Z,13.80
2023-04-18T16:45:48.992Z,13.80
2023-04-18T16:48:18.863Z,13.70
2023-04-18T16:50:48.928Z,13.60
2023-04-18T16:53:18.838Z,13.60
2023-04-18T16:55:53.225Z,13.50
2023-04-18T16:58:24.086Z,13.30
2023-04-18T17:00:54.043Z,13.20
2023-04-18T17:03:24.084Z,13.30
2023-04-18T17:05:54.133Z,13.30
2023-04-18T17:08:25.980Z,13.20
2023-04-18T17:10:59.484Z,13.10
2023-04-18T17:13:31.681Z,13.10
2023-04-18T17:16:02.020Z,13.00
2023-04-18T17:18:32.117Z,13.10
2023-04-18T17:21:02.063Z,13.00
2023-04-18T17:23:33.134Z,13.10
2023-04-18T17:26:06.049Z,13.10
2023-04-18T17:28:35.956Z,13.00
2023-04-18T17:31:06.014Z,13.00
2023-04-18T17:33:35.963Z,13.00
2023-04-18T17:36:08.443Z,13.00
2023-04-18T17:38:38.406Z,13.00
2023-04-18T17:41:11.010Z,12.90
2023-04-18T17:43:40.971Z,12.90
2023-04-18T17:46:11.361Z,12.90
2023-04-18T17:48:41.523Z,12.80
2023-04-18T17:51:11.411Z,12.70
2023-04-18T17:53:41.284Z,12.80
2023-04-18T17:56:13.948Z,12.60
2023-04-18T17:58:43.996Z,12.60
2023-04-18T18:01:18.030Z,12.60
2023-04-18T18:03:48.853Z,12.60
2023-04-18T18:06:19.371Z,12.50
2023-04-18T18:08:49.309Z,12.40
2023-04-18T18:11:23.270Z,12.40
2023-04-18T18:13:55.694Z,12.40
2023-04-18T18:16:26.693Z,12.30
2023-04-18T18:18:56.572Z,12.30
2023-04-18T18:21:26.497Z,12.20
2023-04-18T18:23:56.364Z,12.20
2023-04-18T18:26:29.313Z,12.20
2023-04-18T18:28:59.652Z,12.20
2023-04-18T18:31:29.622Z,12.10
2023-04-18T18:33:59.514Z,12.20
2023-04-18T18:36:30.097Z,12.10
2023-04-18T18:39:00.623Z,12.20
2023-04-18T18:41:33.265Z,12.20
2023-04-18T18:44:03.246Z,12.20
2023-04-18T18:46:33.383Z,12.10
2023-04-18T18:49:03.352Z,12.00
2023-04-18T18:51:33.461Z,12.00
2023-04-18T18:54:03.356Z,12.00
2023-04-18T18:56:38.911Z,12.00
2023-04-18T18:59:08.922Z,11.90
2023-04-18T19:01:38.814Z,11.90
2023-04-18T19:04:08.853Z,11.90
2023-04-18T19:06:38.855Z,11.80
2023-04-18T19:09:08.738Z,11.80
2023-04-18T19:11:41.272Z,11.80
2023-04-18T19:14:11.149Z,11.70
2023-04-18T19:16:41.066Z,11.70
2023-04-18T19:19:12.269Z,11.70
2023-04-18T19:21:45.935Z,11.70
2023-04-18T19:24:16.066Z,11.70
2023-04-18T19:26:48.546Z,11.60
2023-04-18T19:29:18.510Z,11.50
2023-04-18T19:31:49.214Z,11.50
2023-04-18T19:34:19.164Z,11.50
2023-04-18T19:36:49.117Z,11.50
2023-04-18T19:39:19.082Z,11.50
2023-04-18T19:41:51.562Z,11.40
2023-04-18T19:44:21.443Z,11.40
2023-04-18T19:46:51.463Z,11.30
2023-04-18T19:49:22.548Z,11.30
2023-04-18T19:51:52.879Z,11.30
2023-04-18T19:54:22.771Z,11.30
2023-04-18T19:56:55.477Z,11.30
2023-04-18T19:59:25.454Z,11.30
2023-04-18T20:01:55.439Z,11.30
2023-04-18T20:04:26.151Z,11.30
2023-04-18T20:06:56.323Z,11.20
2023-04-18T20:09:26.215Z,11.20
2023-04-18T20:12:00.633Z,11.20
2023-04-18T20:14:30.938Z,11.10
2023-04-18T20:17:00.867Z,11.10
2023-04-18T20:19:31.164Z,11.10
2023-04-18T20:22:01.086Z,11.20
2023-04-18T20:24:31.785Z,11.10
2023-04-18T20:27:04.730Z,11.10
2023-04-18T20:29:34.593Z,11.10
2023-04-18T20:32:04.809Z,11.10
2023-04-18T20:34:34.759Z,11.00
2023-04-18T20:37:07.569Z,11.00
2023-04-18T20:39:38.279Z,11.00
2023-04-18T20:42:14.429Z,11.00
2023-04-18T20:44:46.957Z,10.90
2023-04-18T20:47:17.964Z,11.00
2023-04-18T20:49:48.022Z,11.00
2023-04-18T20:52:18.270Z,10.90
2023-04-18T20:54:48.163Z,10.90
2023-04-18T20:57:21.914Z,10.90
2023-04-18T20:59:51.821Z,10.90
2023-04-18T21:02:22.028Z,10.80
2023-04-18T21:04:52.174Z,10.80
2023-04-18T21:07:22.273Z,10.80
2023-04-18T21:09:52.142Z,10.70
2023-04-18T21:12:24.780Z,10.70
2023-04-18T21:14:54.683Z,10.70
2023-04-18T21:17:25.682Z,10.70
2023-04-18T21:19:55.944Z,10.70
2023-04-18T21:22:25.824Z,10.60
2023-04-18T21:24:55.727Z,10.70
2023-04-18T21:27:28.199Z,10.60
2023-04-18T21:29:58.064Z,10.60
2023-04-18T21:32:28.153Z,10.60
2023-04-18T21:34:58.484Z,10.50
2023-04-18T21:37:29.057Z,10.50
2023-04-18T21:39:58.904Z,10.50
2023-04-18T21:42:31.375Z,10.50
2023-04-18T21:45:01.470Z,10.50
2023-04-18T21:47:31.438Z,10.50
2023-04-18T21:50:01.367Z,10.50
2023-04-18T21:52:31.387Z,10.50
2023-04-18T21:55:01.993Z,10.40
2023-04-18T21:57:34.450Z,10.40
2023-04-18T22:00:07.321Z,10.50
2023-04-18T22:02:39.331Z,10.50
2023-04-18T22:05:13.041Z,10.40
2023-04-18T22:07:54.471Z,10.40
2023-04-18T22:10:28.005Z,10.40
2023-04-18T22:13:01.204Z,10.40
2023-04-18T22:15:31.143Z,10.40
2023-04-18T22:18:01.866Z,10.30
2023-04-18T22:20:31.860Z,10.30
2023-04-18T22:23:03.174Z,10.40
2023-04-18T22:25:33.278Z,10.40
2023-04-18T22:28:06.991Z,10.40
2023-04-18T22:30:37.029Z,10.30
2023-04-18T22:33:06.989Z,10.30
2023-04-18T22:35:37.156Z,10.30
2023-04-18T22:38:07.058Z,10.30
2023-04-18T22:40:36.968Z,10.30
2023-04-18T22:43:09.606Z,10.30
2023-04-18T22:45:39.540Z,10.20
2023-04-18T22:48:12.390Z,10.10
2023-04-18T22:50:43.777Z,10.10
2023-04-18T22:53:14.511Z,10.20
2023-04-18T22:55:45.311Z,10.20
2023-04-18T22:58:17.802Z,10.10
2023-04-18T23:00:47.837Z,10.20
2023-04-18T23:03:17.891Z,10.20
2023-04-18T23:05:48.016Z,10.20
2023-04-18T23:08:18.902Z,10.30
2023-04-18T23:10:48.991Z,10.20
2023-04-18T23:13:21.504Z,10.30
2023-04-18T23:15:51.437Z,10.20
2023-04-18T23:18:21.377Z,10.20
2023-04-18T23:20:51.253Z,10.20
2023-04-18T23:23:21.105Z,10.20
2023-04-18T23:25:50.965Z,10.20
2023-04-18T23:28:23.543Z,10.20
2023-04-18T23:30:53.467Z,10.10
2023-04-18T23:33:23.412Z,10.10
2023-04-18T23:35:53.407Z,10.10
2023-04-18T23:38:23.309Z,10.10
2023-04-18T23:40:53.196Z,10.00
2023-04-18T23:43:25.737Z,10.10
2023-04-18T23:45:55.611Z,10.10
2023-04-18T23:48:25.672Z,10.10
2023-04-18T23:50:56.037Z,10.10
2023-04-18T23:53:26.564Z,10.10
2023-04-18T23:55:56.678Z,10.00
2023-04-18T23:58:29.169Z,10.00
